sensor_id;sensor_type;location;lat;lon;timestamp;temperature;humidity
45104;DHT22;30865;51.288;4.572;2023-04-22T00:00:05;13.00;99.90
45104;DHT22;30865;51.288;4.572;2023-04-22T00:02:33;13.00;99.90
45104;DHT22;30865;51.288;4.572;2023-04-22T00:05:02;12.90;99.90
45104;DHT22;30865;51.288;4.572;2023-04-22T00:07:27;12.90;99.90
45104;DHT22;30865;51.288;4.572;2023-04-22T00:09:53;12.90;99.90
45104;DHT22;30865;51.288;4.572;2023-04-22T00:12:18;13.00;99.90
45104;DHT22;30865;51.288;4.572;2023-04-22T00:14:44;12.90;99.90
45104;DHT22;30865;51.288;4.572;2023-04-22T00:17:09;12.90;99.90
45104;DHT22;30865;51.288;4.572;2023-04-22T00:19:35;12.90;99.90
45104;DHT22;30865;51.288;4.572;2023-04-22T00:22:02;12.90;99.90
45104;DHT22;30865;51.288;4.572;2023-04-22T00:24:28;12.80;99.90
45104;DHT22;30865;51.288;4.572;2023-04-22T00:26:53;12.70;99.90
45104;DHT22;30865;51.288;4.572;2023-04-22T00:29:19;12.80;99.90
45104;DHT22;30865;51.288;4.572;2023-04-22T00:31:44;12.80;99.90
45104;DHT22;30865;51.288;4.572;2023-04-22T00:34:10;12.70;99.90
45104;DHT22;30865;51.288;4.572;2023-04-22T00:36:36;12.70;99.90
45104;DHT22;30865;51.288;4.572;2023-04-22T00:39:01;12.70;99.90
45104;DHT22;30865;51.288;4.572;2023-04-22T00:41:27;12.70;99.90
45104;DHT22;30865;51.288;4.572;2023-04-22T00:43:52;12.70;99.90
45104;DHT22;30865;51.288;4.572;2023-04-22T00:46:18;12.70;99.90
45104;DHT22;30865;51.288;4.572;2023-04-22T00:48:45;12.70;99.90
45104;DHT22;30865;51.288;4.572;2023-04-22T00:51:10;12.70;99.90
45104;DHT22;30865;51.288;4.572;2023-04-22T00:53:36;12.70;99.90
45104;DHT22;30865;51.288;4.572;2023-04-22T00:56:02;12.70;99.90
45104;DHT22;30865;51.288;4.572;2023-04-22T00:58:28;12.70;99.90
45104;DHT22;30865;51.288;4.572;2023-04-22T01:00:54;12.70;99.90
45104;DHT22;30865;51.288;4.572;2023-04-22T01:03:20;12.70;99.90
45104;DHT22;30865;51.288;4.572;2023-04-22T01:05:47;12.70;99.90
45104;DHT22;30865;51.288;4.572;2023-04-22T01:08:13;12.70;99.90
45104;DHT22;30865;51.288;4.572;2023-04-22T01:10:40;12.60;99.90
45104;DHT22;30865;51.288;4.572;2023-04-22T01:13:05;12.60;99.90
45104;DHT22;30865;51.288;4.572;2023-04-22T01:15:31;12.60;99.90
45104;DHT22;30865;51.288;4.572;2023-04-22T01:17:58;12.60;99.90
45104;DHT22;30865;51.288;4.572;2023-04-22T01:20:26;12.60;99.90
45104;DHT22;30865;51.288;4.572;2023-04-22T01:22:54;12.60;99.90
45104;DHT22;30865;51.288;4.572;2023-04-22T01:25:24;12.60;99.90
45104;DHT22;30865;51.288;4.572;2023-04-22T01:27:50;12.60;99.90
45104;DHT22;30865;51.288;4.572;2023-04-22T01:30:16;12.60;99.90
45104;DHT22;30865;51.288;4.572;2023-04-22T01:32:41;12.60;99.90
45104;DHT22;30865;51.288;4.572;2023-04-22T01:35:08;12.60;99.90
45104;DHT22;30865;51.288;4.572;2023-04-22T01:37:34;12.50;99.90
45104;DHT22;30865;51.288;4.572;2023-04-22T01:40:00;12.50;99.90
45104;DHT22;30865;51.288;4.572;2023-04-22T01:42:26;12.40;99.90
45104;DHT22;30865;51.288;4.572;2023-04-22T01:44:51;12.40;99.90
45104;DHT22;30865;51.288;4.572;2023-04-22T01:47:17;12.40;99.90
45104;DHT22;30865;51.288;4.572;2023-04-22T01:49:42;12.40;99.90
45104;DHT22;30865;51.288;4.572;2023-04-22T01:52:08;12.40;99.90
45104;DHT22;30865;51.288;4.572;2023-04-22T01:54:34;12.40;99.90
45104;DHT22;30865;51.288;4.572;2023-04-22T01:57:08;12.40;99.90
45104;DHT22;30865;51.288;4.572;2023-04-22T01:59:35;12.30;99.90
45104;DHT22;30865;51.288;4.572;2023-04-22T02:02:00;12.30;99.90
45104;DHT22;30865;51.288;4.572;2023-04-22T02:04:26;12.20;99.90
45104;DHT22;30865;51.288;4.572;2023-04-22T02:06:51;12.10;99.90
45104;DHT22;30865;51.288;4.572;2023-04-22T02:09:17;12.10;99.90
45104;DHT22;30865;51.288;4.572;2023-04-22T02:11:42;12.10;99.90
45104;DHT22;30865;51.288;4.572;2023-04-22T02:14:08;12.00;99.90
45104;DHT22;30865;51.288;4.572;2023-04-22T02:16:33;12.10;99.90
45104;DHT22;30865;51.288;4.572;2023-04-22T02:18:59;12.10;99.90
45104;DHT22;30865;51.288;4.572;2023-04-22T02:21:25;12.10;99.90
45104;DHT22;30865;51.288;4.572;2023-04-22T02:23:52;12.10;99.90
45104;DHT22;30865;51.288;4.572;2023-04-22T02:26:18;12.10;99.90
45104;DHT22;30865;51.288;4.572;2023-04-22T02:28:43;12.00;99.90
45104;DHT22;30865;51.288;4.572;2023-04-22T02:31:08;12.00;99.90
45104;DHT22;30865;51.288;4.572;2023-04-22T02:33:34;12.00;99.90
45104;DHT22;30865;51.288;4.572;2023-04-22T02:36:00;12.00;99.90
45104;DHT22;30865;51.288;4.572;2023-04-22T02:38:26;12.00;99.90
45104;DHT22;30865;51.288;4.572;2023-04-22T02:40:51;12.00;99.90
45104;DHT22;30865;51.288;4.572;2023-04-22T02:43:17;12.00;99.90
45104;DHT22;30865;51.288;4.572;2023-04-22T02:45:42;12.00;99.90
45104;DHT22;30865;51.288;4.572;2023-04-22T02:48:08;11.90;99.90
45104;DHT22;30865;51.288;4.572;2023-04-22T02:50:33;11.90;99.90
45104;DHT22;30865;51.288;4.572;2023-04-22T02:52:58;11.90;99.90
45104;DHT22;30865;51.288;4.572;2023-04-22T02:55:24;11.90;99.90
45104;DHT22;30865;51.288;4.572;2023-04-22T02:57:50;11.90;99.90
45104;DHT22;30865;51.288;4.572;2023-04-22T03:00:15;11.80;99.90
45104;DHT22;30865;51.288;4.572;2023-04-22T03:02:41;11.80;99.90
45104;DHT22;30865;51.288;4.572;2023-04-22T03:05:07;11.80;99.90
45104;DHT22;30865;51.288;4.572;2023-04-22T03:07:32;11.80;99.90
45104;DHT22;30865;51.288;4.572;2023-04-22T03:09:58;11.80;99.90
45104;DHT22;30865;51.288;4.572;2023-04-22T03:12:24;11.80;99.90
45104;DHT22;30865;51.288;4.572;2023-04-22T03:14:49;11.80;99.90
45104;DHT22;30865;51.288;4.572;2023-04-22T03:17:15;11.70;99.90
45104;DHT22;30865;51.288;4.572;2023-04-22T03:19:40;11.70;99.90
45104;DHT22;30865;51.288;4.572;2023-04-22T03:22:06;11.70;99.90
45104;DHT22;30865;51.288;4.572;2023-04-22T03:24:31;11.70;99.90
45104;DHT22;30865;51.288;4.572;2023-04-22T03:26:57;11.60;99.90
45104;DHT22;30865;51.288;4.572;2023-04-22T03:29:22;11.60;99.90
45104;DHT22;30865;51.288;4.572;2023-04-22T03:31:48;11.50;99.90
45104;DHT22;30865;51.288;4.572;2023-04-22T03:34:13;11.50;99.90
45104;DHT22;30865;51.288;4.572;2023-04-22T03:36:39;11.40;99.90
45104;DHT22;30865;51.288;4.572;2023-04-22T03:39:04;11.40;99.90
45104;DHT22;30865;51.288;4.572;2023-04-22T03:41:30;11.40;99.90
45104;DHT22;30865;51.288;4.572;2023-04-22T03:43:55;11.30;99.90
45104;DHT22;30865;51.288;4.572;2023-04-22T03:46:21;11.40;99.90
45104;DHT22;30865;51.288;4.572;2023-04-22T03:48:46;11.40;99.90
45104;DHT22;30865;51.288;4.572;2023-04-22T03:51:12;11.40;99.90
45104;DHT22;30865;51.288;4.572;2023-04-22T03:53:37;11.40;99.90
45104;DHT22;30865;51.288;4.572;2023-04-22T03:56:03;11.30;99.90
45104;DHT22;30865;51.288;4.572;2023-04-22T03:58:29;11.30;99.90
45104;DHT22;30865;51.288;4.572;2023-04-22T04:00:54;11.30;99.90
45104;DHT22;30865;51.288;4.572;2023-04-22T04:03:20;11.20;99.90
45104;DHT22;30865;51.288;4.572;2023-04-22T04:05:46;11.20;99.90
45104;DHT22;30865;51.288;4.572;2023-04-22T04:08:11;11.20;99.90
45104;DHT22;30865;51.288;4.572;2023-04-22T04:10:37;11.20;99.90
45104;DHT22;30865;51.288;4.572;2023-04-22T04:13:02;11.20;99.90
45104;DHT22;30865;51.288;4.572;2023-04-22T04:15:28;11.20;99.90
45104;DHT22;30865;51.288;4.572;2023-04-22T04:17:54;11.10;99.90
45104;DHT22;30865;51.288;4.572;2023-04-22T04:20:21;11.10;99.90
45104;DHT22;30865;51.288;4.572;2023-04-22T04:22:46;11.10;99.90
45104;DHT22;30865;51.288;4.572;2023-04-22T04:25:12;11.10;99.90
45104;DHT22;30865;51.288;4.572;2023-04-22T04:27:37;11.10;99.90
45104;DHT22;30865;51.288;4.572;2023-04-22T04:30:04;10.90;99.90
45104;DHT22;30865;51.288;4.572;2023-04-22T04:32:30;10.90;99.90
45104;DHT22;30865;51.288;4.572;2023-04-22T04:34:58;10.90;99.90
45104;DHT22;30865;51.288;4.572;2023-04-22T04:37:24;10.90;99.90
45104;DHT22;30865;51.288;4.572;2023-04-22T04:39:50;11.00;99.90
45104;DHT22;30865;51.288;4.572;2023-04-22T04:42:16;11.00;99.90
45104;DHT22;30865;51.288;4.572;2023-04-22T04:44:41;11.00;99.90
45104;DHT22;30865;51.288;4.572;2023-04-22T04:47:07;10.90;99.90
45104;DHT22;30865;51.288;4.572;2023-04-22T04:49:32;11.00;99.90
45104;DHT22;30865;51.288;4.572;2023-04-22T04:52:04;11.00;99.90
45104;DHT22;30865;51.288;4.572;2023-04-22T04:54:30;10.90;99.90
45104;DHT22;30865;51.288;4.572;2023-04-22T04:56:55;10.90;99.90
45104;DHT22;30865;51.288;4.572;2023-04-22T04:59:21;10.90;99.90
45104;DHT22;30865;51.288;4.572;2023-04-22T05:01:47;10.90;99.90
45104;DHT22;30865;51.288;4.572;2023-04-22T05:04:12;10.90;99.90
45104;DHT22;30865;51.288;4.572;2023-04-22T05:06:38;11.00;99.90
45104;DHT22;30865;51.288;4.572;2023-04-22T05:09:04;11.10;99.90
45104;DHT22;30865;51.288;4.572;2023-04-22T05:11:29;11.20;99.90
45104;DHT22;30865;51.288;4.572;2023-04-22T05:13:55;11.20;99.90
45104;DHT22;30865;51.288;4.572;2023-04-22T05:16:21;11.20;99.90
45104;DHT22;30865;51.288;4.572;2023-04-22T05:18:46;11.20;99.90
45104;DHT22;30865;51.288;4.572;2023-04-22T05:21:12;11.20;99.90
45104;DHT22;30865;51.288;4.572;2023-04-22T05:23:37;11.20;99.90
45104;DHT22;30865;51.288;4.572;2023-04-22T05:26:03;11.20;99.90
45104;DHT22;30865;51.288;4.572;2023-04-22T05:28:29;11.20;99.90
45104;DHT22;30865;51.288;4.572;2023-04-22T05:30:54;11.20;99.90
45104;DHT22;30865;51.288;4.572;2023-04-22T05:33:20;11.20;99.90
45104;DHT22;30865;51.288;4.572;2023-04-22T05:35:46;11.20;99.90
45104;DHT22;30865;51.288;4.572;2023-04-22T05:38:11;11.30;99.90
45104;DHT22;30865;51.288;4.572;2023-04-22T05:40:37;11.30;99.90
45104;DHT22;30865;51.288;4.572;2023-04-22T05:43:03;11.30;99.90
45104;DHT22;30865;51.288;4.572;2023-04-22T05:45:28;11.30;99.90
45104;DHT22;30865;51.288;4.572;2023-04-22T05:47:54;11.20;99.90
45104;DHT22;30865;51.288;4.572;2023-04-22T05:50:19;11.20;99.90
45104;DHT22;30865;51.288;4.572;2023-04-22T05:52:45;11.20;99.90
45104;DHT22;30865;51.288;4.572;2023-04-22T05:55:10;11.20;99.90
45104;DHT22;30865;51.288;4.572;2023-04-22T05:57:36;11.20;99.90
45104;DHT22;30865;51.288;4.572;2023-04-22T06:00:03;11.20;99.90
45104;DHT22;30865;51.288;4.572;2023-04-22T06:02:28;11.30;99.90
45104;DHT22;30865;51.288;4.572;2023-04-22T06:04:54;11.40;99.90
45104;DHT22;30865;51.288;4.572;2023-04-22T06:07:19;11.50;99.90
45104;DHT22;30865;51.288;4.572;2023-04-22T06:09:45;11.60;99.90
45104;DHT22;30865;51.288;4.572;2023-04-22T06:12:10;11.70;99.90
45104;DHT22;30865;51.288;4.572;2023-04-22T06:14:36;11.80;99.90
45104;DHT22;30865;51.288;4.572;2023-04-22T06:17:01;12.10;99.90
45104;DHT22;30865;51.288;4.572;2023-04-22T06:19:27;12.20;99.90
45104;DHT22;30865;51.288;4.572;2023-04-22T06:21:52;12.30;99.90
45104;DHT22;30865;51.288;4.572;2023-04-22T06:24:18;12.50;99.90
45104;DHT22;30865;51.288;4.572;2023-04-22T06:26:44;12.70;99.90
45104;DHT22;30865;51.288;4.572;2023-04-22T06:29:09;12.70;99.90
45104;DHT22;30865;51.288;4.572;2023-04-22T06:31:35;12.90;99.90
45104;DHT22;30865;51.288;4.572;2023-04-22T06:34:00;12.90;99.90
45104;DHT22;30865;51.288;4.572;2023-04-22T06:36:26;13.00;99.90
45104;DHT22;30865;51.288;4.572;2023-04-22T06:38:54;13.10;99.90
45104;DHT22;30865;51.288;4.572;2023-04-22T06:41:20;13.10;99.90
45104;DHT22;30865;51.288;4.572;2023-04-22T06:43:46;13.30;99.90
45104;DHT22;30865;51.288;4.572;2023-04-22T06:46:14;13.30;99.90
45104;DHT22;30865;51.288;4.572;2023-04-22T06:48:40;13.30;99.90
45104;DHT22;30865;51.288;4.572;2023-04-22T06:51:06;13.30;99.90
45104;DHT22;30865;51.288;4.572;2023-04-22T06:53:31;13.40;99.90
45104;DHT22;30865;51.288;4.572;2023-04-22T06:55:57;13.40;99.90
45104;DHT22;30865;51.288;4.572;2023-04-22T06:58:22;13.50;99.90
45104;DHT22;30865;51.288;4.572;2023-04-22T07:00:48;13.60;99.90
45104;DHT22;30865;51.288;4.572;2023-04-22T07:03:13;13.60;99.90
45104;DHT22;30865;51.288;4.572;2023-04-22T07:05:39;13.70;99.90
45104;DHT22;30865;51.288;4.572;2023-04-22T07:08:04;13.70;99.90
45104;DHT22;30865;51.288;4.572;2023-04-22T07:10:30;13.70;99.90
45104;DHT22;30865;51.288;4.572;2023-04-22T07:12:55;13.80;99.90
45104;DHT22;30865;51.288;4.572;2023-04-22T07:15:20;13.90;99.90
45104;DHT22;30865;51.288;4.572;2023-04-22T07:17:46;13.90;99.90
45104;DHT22;30865;51.288;4.572;2023-04-22T07:20:11;14.00;99.90
45104;DHT22;30865;51.288;4.572;2023-04-22T07:22:37;14.10;99.90
45104;DHT22;30865;51.288;4.572;2023-04-22T07:25:03;14.20;99.90
45104;DHT22;30865;51.288;4.572;2023-04-22T07:27:31;14.30;99.90
45104;DHT22;30865;51.288;4.572;2023-04-22T07:29:57;14.40;99.90
45104;DHT22;30865;51.288;4.572;2023-04-22T07:32:22;14.50;99.90
45104;DHT22;30865;51.288;4.572;2023-04-22T07:34:47;14.40;99.90
45104;DHT22;30865;51.288;4.572;2023-04-22T07:37:13;14.50;99.90
45104;DHT22;30865;51.288;4.572;2023-04-22T07:39:39;14.60;99.90
45104;DHT22;30865;51.288;4.572;2023-04-22T07:42:05;14.60;99.90
45104;DHT22;30865;51.288;4.572;2023-04-22T07:44:31;14.80;99.90
45104;DHT22;30865;51.288;4.572;2023-04-22T07:46:57;14.80;99.90
45104;DHT22;30865;51.288;4.572;2023-04-22T07:49:23;14.70;99.90
45104;DHT22;30865;51.288;4.572;2023-04-22T07:51:50;14.80;99.90
45104;DHT22;30865;51.288;4.572;2023-04-22T07:54:15;14.80;99.90
45104;DHT22;30865;51.288;4.572;2023-04-22T07:56:40;14.80;99.90
45104;DHT22;30865;51.288;4.572;2023-04-22T07:59:06;14.90;99.90
45104;DHT22;30865;51.288;4.572;2023-04-22T08:01:31;15.00;99.90
45104;DHT22;30865;51.288;4.572;2023-04-22T08:03:57;15.00;99.90
45104;DHT22;30865;51.288;4.572;2023-04-22T08:06:23;15.10;99.90
45104;DHT22;30865;51.288;4.572;2023-04-22T08:08:48;15.20;99.90
45104;DHT22;30865;51.288;4.572;2023-04-22T08:11:14;15.30;99.90
45104;DHT22;30865;51.288;4.572;2023-04-22T08:13:39;15.50;99.90
45104;DHT22;30865;51.288;4.572;2023-04-22T08:16:05;15.60;99.90
45104;DHT22;30865;51.288;4.572;2023-04-22T08:18:31;15.80;99.90
45104;DHT22;30865;51.288;4.572;2023-04-22T08:20:57;16.00;99.90
45104;DHT22;30865;51.288;4.572;2023-04-22T08:23:24;16.20;99.90
45104;DHT22;30865;51.288;4.572;2023-04-22T08:25:52;16.40;99.90
45104;DHT22;30865;51.288;4.572;2023-04-22T08:28:18;16.50;99.90
45104;DHT22;30865;51.288;4.572;2023-04-22T08:30:44;16.50;99.90
45104;DHT22;30865;51.288;4.572;2023-04-22T08:33:09;16.50;99.90
45104;DHT22;30865;51.288;4.572;2023-04-22T08:35:35;16.50;99.90
45104;DHT22;30865;51.288;4.572;2023-04-22T08:38:01;16.50;99.90
45104;DHT22;30865;51.288;4.572;2023-04-22T08:40:27;16.40;99.90
45104;DHT22;30865;51.288;4.572;2023-04-22T08:42:53;16.60;99.90
45104;DHT22;30865;51.288;4.572;2023-04-22T08:45:20;16.70;99.90
45104;DHT22;30865;51.288;4.572;2023-04-22T08:47:47;16.90;99.90
45104;DHT22;30865;51.288;4.572;2023-04-22T08:50:13;17.30;99.90
45104;DHT22;30865;51.288;4.572;2023-04-22T08:52:41;17.30;99.90
45104;DHT22;30865;51.288;4.572;2023-04-22T08:55:09;17.60;99.60
45104;DHT22;30865;51.288;4.572;2023-04-22T08:57:36;17.80;99.20
45104;DHT22;30865;51.288;4.572;2023-04-22T09:00:03;18.10;98.60
45104;DHT22;30865;51.288;4.572;2023-04-22T09:02:31;18.40;97.70
45104;DHT22;30865;51.288;4.572;2023-04-22T09:04:57;18.40;97.00
45104;DHT22;30865;51.288;4.572;2023-04-22T09:07:25;18.50;96.70
45104;DHT22;30865;51.288;4.572;2023-04-22T09:09:52;18.60;96.10
45104;DHT22;30865;51.288;4.572;2023-04-22T09:12:18;18.60;96.10
45104;DHT22;30865;51.288;4.572;2023-04-22T09:14:44;18.70;95.20
45104;DHT22;30865;51.288;4.572;2023-04-22T09:17:10;18.90;94.90
45104;DHT22;30865;51.288;4.572;2023-04-22T09:19:39;19.10;93.90
45104;DHT22;30865;51.288;4.572;2023-04-22T09:22:04;19.30;93.20
45104;DHT22;30865;51.288;4.572;2023-04-22T09:24:33;19.40;92.50
45104;DHT22;30865;51.288;4.572;2023-04-22T09:27:01;19.70;91.80
45104;DHT22;30865;51.288;4.572;2023-04-22T09:29:30;19.70;90.50
45104;DHT22;30865;51.288;4.572;2023-04-22T09:31:56;19.80;90.80
45104;DHT22;30865;51.288;4.572;2023-04-22T09:34:21;19.50;90.20
45104;DHT22;30865;51.288;4.572;2023-04-22T09:36:49;19.50;89.70
45104;DHT22;30865;51.288;4.572;2023-04-22T09:39:15;19.50;89.30
45104;DHT22;30865;51.288;4.572;2023-04-22T09:41:41;19.70;88.50
45104;DHT22;30865;51.288;4.572;2023-04-22T09:44:09;19.70;87.60
45104;DHT22;30865;51.288;4.572;2023-04-22T09:46:35;19.80;86.60
45104;DHT22;30865;51.288;4.572;2023-04-22T09:49:01;19.80;87.30
45104;DHT22;30865;51.288;4.572;2023-04-22T09:51:27;19.90;85.50
45104;DHT22;30865;51.288;4.572;2023-04-22T09:54:01;20.10;84.60
45104;DHT22;30865;51.288;4.572;2023-04-22T09:56:49;20.10;85.10
45104;DHT22;30865;51.288;4.572;2023-04-22T09:59:20;19.90;84.80
45104;DHT22;30865;51.288;4.572;2023-04-22T10:01:46;20.00;84.60
45104;DHT22;30865;51.288;4.572;2023-04-22T10:04:12;20.10;82.00
45104;DHT22;30865;51.288;4.572;2023-04-22T10:06:40;20.40;81.00
45104;DHT22;30865;51.288;4.572;2023-04-22T10:09:05;20.40;81.50
45104;DHT22;30865;51.288;4.572;2023-04-22T10:11:33;20.60;80.20
45104;DHT22;30865;51.288;4.572;2023-04-22T10:13:58;20.70;80.20
45104;DHT22;30865;51.288;4.572;2023-04-22T10:16:26;20.70;80.50
45104;DHT22;30865;51.288;4.572;2023-04-22T10:18:54;21.00;79.30
45104;DHT22;30865;51.288;4.572;2023-04-22T10:21:24;21.30;77.90
45104;DHT22;30865;51.288;4.572;2023-04-22T10:23:51;21.10;75.90
45104;DHT22;30865;51.288;4.572;2023-04-22T10:26:49;21.30;75.70
45104;DHT22;30865;51.288;4.572;2023-04-22T10:29:16;21.70;73.40
45104;DHT22;30865;51.288;4.572;2023-04-22T10:31:44;21.60;73.00
45104;DHT22;30865;51.288;4.572;2023-04-22T10:34:14;21.60;73.60
45104;DHT22;30865;51.288;4.572;2023-04-22T10:36:55;21.70;69.40
45104;DHT22;30865;51.288;4.572;2023-04-22T10:39:22;21.60;70.00
45104;DHT22;30865;51.288;4.572;2023-04-22T10:42:11;22.20;68.20
45104;DHT22;30865;51.288;4.572;2023-04-22T10:44:50;22.20;66.50
45104;DHT22;30865;51.288;4.572;2023-04-22T10:47:32;22.30;66.10
45104;DHT22;30865;51.288;4.572;2023-04-22T10:50:24;22.60;61.80
45104;DHT22;30865;51.288;4.572;2023-04-22T10:53:08;22.30;62.70
45104;DHT22;30865;51.288;4.572;2023-04-22T10:55:50;22.50;61.50
45104;DHT22;30865;51.288;4.572;2023-04-22T10:58:22;22.60;60.60
45104;DHT22;30865;51.288;4.572;2023-04-22T11:00:48;22.90;59.10
45104;DHT22;30865;51.288;4.572;2023-04-22T11:03:25;23.30;57.00
45104;DHT22;30865;51.288;4.572;2023-04-22T11:06:14;23.40;57.10
45104;DHT22;30865;51.288;4.572;2023-04-22T11:08:45;23.40;52.10
45104;DHT22;30865;51.288;4.572;2023-04-22T11:11:11;23.40;50.70
45104;DHT22;30865;51.288;4.572;2023-04-22T11:13:40;23.40;50.70
45104;DHT22;30865;51.288;4.572;2023-04-22T11:16:08;23.30;50.60
45104;DHT22;30865;51.288;4.572;2023-04-22T11:18:33;23.30;49.90
45104;DHT22;30865;51.288;4.572;2023-04-22T11:21:04;23.40;50.40
45104;DHT22;30865;51.288;4.572;2023-04-22T11:23:31;23.50;50.00
45104;DHT22;30865;51.288;4.572;2023-04-22T11:26:00;23.70;49.50
45104;DHT22;30865;51.288;4.572;2023-04-22T11:28:29;23.90;48.40
45104;DHT22;30865;51.288;4.572;2023-04-22T11:31:05;23.80;47.10
45104;DHT22;30865;51.288;4.572;2023-04-22T11:33:34;23.60;46.20
45104;DHT22;30865;51.288;4.572;2023-04-22T11:36:00;23.70;47.00
45104;DHT22;30865;51.288;4.572;2023-04-22T11:38:26;23.90;45.60
45104;DHT22;30865;51.288;4.572;2023-04-22T11:40:53;23.90;45.30
45104;DHT22;30865;51.288;4.572;2023-04-22T11:43:19;23.80;45.60
45104;DHT22;30865;51.288;4.572;2023-04-22T11:45:45;24.00;45.10
45104;DHT22;30865;51.288;4.572;2023-04-22T11:48:11;24.00;44.10
45104;DHT22;30865;51.288;4.572;2023-04-22T11:50:38;23.90;44.20
45104;DHT22;30865;51.288;4.572;2023-04-22T11:53:18;23.70;44.40
45104;DHT22;30865;51.288;4.572;2023-04-22T11:55:46;23.70;44.50
45104;DHT22;30865;51.288;4.572;2023-04-22T11:58:25;23.70;44.20
45104;DHT22;30865;51.288;4.572;2023-04-22T12:00:53;23.80;45.20
45104;DHT22;30865;51.288;4.572;2023-04-22T12:03:20;24.10;44.20
45104;DHT22;30865;51.288;4.572;2023-04-22T12:05:52;24.10;42.10
45104;DHT22;30865;51.288;4.572;2023-04-22T12:08:19;24.30;42.60
45104;DHT22;30865;51.288;4.572;2023-04-22T12:10:49;24.20;41.50
45104;DHT22;30865;51.288;4.572;2023-04-22T12:13:23;24.10;41.70
45104;DHT22;30865;51.288;4.572;2023-04-22T12:15:53;24.20;42.70
45104;DHT22;30865;51.288;4.572;2023-04-22T12:21:18;23.80;42.80
45104;DHT22;30865;51.288;4.572;2023-04-22T12:23:46;23.60;43.10
45104;DHT22;30865;51.288;4.572;2023-04-22T12:26:13;23.70;43.40
45104;DHT22;30865;51.288;4.572;2023-04-22T12:28:40;23.70;43.50
45104;DHT22;30865;51.288;4.572;2023-04-22T12:31:06;23.80;42.60
45104;DHT22;30865;51.288;4.572;2023-04-22T12:33:33;23.80;43.00
45104;DHT22;30865;51.288;4.572;2023-04-22T12:35:59;23.70;42.80
45104;DHT22;30865;51.288;4.572;2023-04-22T12:38:24;23.60;42.80
45104;DHT22;30865;51.288;4.572;2023-04-22T12:40:51;23.70;43.30
45104;DHT22;30865;51.288;4.572;2023-04-22T12:43:16;23.70;44.10
45104;DHT22;30865;51.288;4.572;2023-04-22T12:45:42;23.60;44.70
45104;DHT22;30865;51.288;4.572;2023-04-22T12:48:08;23.70;44.20
45104;DHT22;30865;51.288;4.572;2023-04-22T12:50:33;23.70;43.10
45104;DHT22;30865;51.288;4.572;2023-04-22T12:52:59;23.60;43.40
45104;DHT22;30865;51.288;4.572;2023-04-22T12:55:25;23.70;43.40
45104;DHT22;30865;51.288;4.572;2023-04-22T12:57:50;23.90;43.20
45104;DHT22;30865;51.288;4.572;2023-04-22T13:00:17;24.20;42.80
45104;DHT22;30865;51.288;4.572;2023-04-22T13:02:44;24.10;42.70
45104;DHT22;30865;51.288;4.572;2023-04-22T13:05:10;23.90;43.50
45104;DHT22;30865;51.288;4.572;2023-04-22T13:07:36;24.20;42.80
45104;DHT22;30865;51.288;4.572;2023-04-22T13:10:02;24.50;42.80
45104;DHT22;30865;51.288;4.572;2023-04-22T13:12:28;24.60;42.60
45104;DHT22;30865;51.288;4.572;2023-04-22T13:14:53;24.70;42.10
45104;DHT22;30865;51.288;4.572;2023-04-22T13:17:18;24.70;41.50
45104;DHT22;30865;51.288;4.572;2023-04-22T13:19:44;24.70;40.90
45104;DHT22;30865;51.288;4.572;2023-04-22T13:22:11;24.50;41.20
45104;DHT22;30865;51.288;4.572;2023-04-22T13:24:36;24.50;41.60
45104;DHT22;30865;51.288;4.572;2023-04-22T13:27:02;24.00;42.50
45104;DHT22;30865;51.288;4.572;2023-04-22T13:29:28;23.70;42.40
45104;DHT22;30865;51.288;4.572;2023-04-22T13:31:53;23.70;42.50
45104;DHT22;30865;51.288;4.572;2023-04-22T13:34:19;23.70;42.80
45104;DHT22;30865;51.288;4.572;2023-04-22T13:36:44;23.80;43.20
45104;DHT22;30865;51.288;4.572;2023-04-22T13:39:12;23.70;42.80
45104;DHT22;30865;51.288;4.572;2023-04-22T13:41:37;23.70;43.50
45104;DHT22;30865;51.288;4.572;2023-04-22T13:44:02;23.60;42.20
45104;DHT22;30865;51.288;4.572;2023-04-22T13:46:29;23.60;42.30
45104;DHT22;30865;51.288;4.572;2023-04-22T13:48:55;24.10;41.40
45104;DHT22;30865;51.288;4.572;2023-04-22T13:51:21;24.10;41.90
45104;DHT22;30865;51.288;4.572;2023-04-22T13:53:47;23.90;42.40
45104;DHT22;30865;51.288;4.572;2023-04-22T13:56:12;23.90;42.10
45104;DHT22;30865;51.288;4.572;2023-04-22T13:58:39;24.10;42.20
45104;DHT22;30865;51.288;4.572;2023-04-22T14:01:06;24.10;42.10
45104;DHT22;30865;51.288;4.572;2023-04-22T14:03:33;23.90;42.80
45104;DHT22;30865;51.288;4.572;2023-04-22T14:05:58;24.00;41.90
45104;DHT22;30865;51.288;4.572;2023-04-22T14:08:25;24.00;42.60
45104;DHT22;30865;51.288;4.572;2023-04-22T14:10:51;24.00;43.70
45104;DHT22;30865;51.288;4.572;2023-04-22T14:13:17;24.00;47.40
45104;DHT22;30865;51.288;4.572;2023-04-22T14:15:42;23.60;50.30
45104;DHT22;30865;51.288;4.572;2023-04-22T14:18:08;23.40;51.00
45104;DHT22;30865;51.288;4.572;2023-04-22T14:20:33;23.30;51.20
45104;DHT22;30865;51.288;4.572;2023-04-22T14:22:59;23.30;51.00
45104;DHT22;30865;51.288;4.572;2023-04-22T14:25:25;23.40;50.60
45104;DHT22;30865;51.288;4.572;2023-04-22T14:27:51;23.40;50.40
45104;DHT22;30865;51.288;4.572;2023-04-22T14:30:17;23.50;50.10
45104;DHT22;30865;51.288;4.572;2023-04-22T14:32:42;23.10;49.70
45104;DHT22;30865;51.288;4.572;2023-04-22T14:35:08;23.40;48.90
45104;DHT22;30865;51.288;4.572;2023-04-22T14:37:34;23.60;45.40
45104;DHT22;30865;51.288;4.572;2023-04-22T14:40:00;23.70;44.10
45104;DHT22;30865;51.288;4.572;2023-04-22T14:42:26;23.70;43.90
45104;DHT22;30865;51.288;4.572;2023-04-22T14:44:52;23.70;44.10
45104;DHT22;30865;51.288;4.572;2023-04-22T14:47:17;23.60;44.10
45104;DHT22;30865;51.288;4.572;2023-04-22T14:49:43;23.40;43.80
45104;DHT22;30865;51.288;4.572;2023-04-22T14:52:09;23.20;43.90
45104;DHT22;30865;51.288;4.572;2023-04-22T14:54:35;23.20;44.30
45104;DHT22;30865;51.288;4.572;2023-04-22T14:57:00;23.20;44.50
45104;DHT22;30865;51.288;4.572;2023-04-22T14:59:26;23.40;44.50
45104;DHT22;30865;51.288;4.572;2023-04-22T15:01:52;23.30;44.20
45104;DHT22;30865;51.288;4.572;2023-04-22T15:04:17;23.70;44.50
45104;DHT22;30865;51.288;4.572;2023-04-22T15:06:43;24.60;43.60
45104;DHT22;30865;51.288;4.572;2023-04-22T15:09:09;24.50;42.60
45104;DHT22;30865;51.288;4.572;2023-04-22T15:11:35;24.90;42.30
45104;DHT22;30865;51.288;4.572;2023-04-22T15:14:01;24.70;42.40
45104;DHT22;30865;51.288;4.572;2023-04-22T15:16:26;25.20;42.00
45104;DHT22;30865;51.288;4.572;2023-04-22T15:18:53;26.20;40.70
45104;DHT22;30865;51.288;4.572;2023-04-22T15:21:19;26.10;41.20
45104;DHT22;30865;51.288;4.572;2023-04-22T15:23:47;25.30;41.20
45104;DHT22;30865;51.288;4.572;2023-04-22T15:26:18;24.40;42.60
45104;DHT22;30865;51.288;4.572;2023-04-22T15:28:44;23.90;44.40